sensor_id;sensor_type;location;lat;lon;timestamp;pressure;altitude;pressure_sealevel;temperature;humidity
43503;BME280;29098;48.184;16.298;2024-02-14T00:00:31;99901.31;;;2.92;99.04
43503;BME280;29098;48.184;16.298;2024-02-14T00:02:57;99910.69;;;2.94;100.00
43503;BME280;29098;48.184;16.298;2024-02-14T00:05:22;99949.75;;;3.06;99.86
43503;BME280;29098;48.184;16.298;2024-02-14T00:07:48;99959.47;;;3.15;100.00
43503;BME280;29098;48.184;16.298;2024-02-14T00:10:13;99932.22;;;2.85;100.00
43503;BME280;29098;48.184;16.298;2024-02-14T00:12:39;99934.38;;;2.91;100.00
43503;BME280;29098;48.184;16.298;2024-02-14T00:15:05;99925.84;;;3.00;100.00
43503;BME280;29098;48.184;16.298;2024-02-14T00:17:34;99933.16;;;2.84;100.00
43503;BME280;29098;48.184;16.298;2024-02-14T00:20:01;99975.09;;;3.15;100.00
43503;BME280;29098;48.184;16.298;2024-02-14T00:22:26;99934.38;;;2.91;100.00
43503;BME280;29098;48.184;16.298;2024-02-14T00:24:52;99918.50;;;2.83;100.00
43503;BME280;29098;48.184;16.298;2024-02-14T00:27:17;99945.50;;;3.05;100.00
43503;BME280;29098;48.184;16.298;2024-02-14T00:29:43;99936.25;;;2.89;100.00
43503;BME280;29098;48.184;16.298;2024-02-14T00:32:11;99975.31;;;3.00;100.00
43503;BME280;29098;48.184;16.298;2024-02-14T00:34:37;99965.97;;;2.98;100.00
43503;BME280;29098;48.184;16.298;2024-02-14T00:37:02;99974.38;;;3.01;100.00
43503;BME280;29098;48.184;16.298;2024-02-14T00:39:28;99966.56;;;3.01;100.00
43503;BME280;29098;48.184;16.298;2024-02-14T00:41:54;99921.31;;;2.80;100.00
43503;BME280;29098;48.184;16.298;2024-02-14T00:44:20;99925.13;;;2.87;100.00
43503;BME280;29098;48.184;16.298;2024-02-14T00:46:45;99930.69;;;2.82;100.00
43503;BME280;29098;48.184;16.298;2024-02-14T00:49:11;99921.88;;;2.60;100.00
43503;BME280;29098;48.184;16.298;2024-02-14T00:51:37;99954.22;;;2.69;100.00
43503;BME280;29098;48.184;16.298;2024-02-14T00:54:05;99936.31;;;2.53;100.00
43503;BME280;29098;48.184;16.298;2024-02-14T00:56:30;99975.53;;;2.74;100.00
43503;BME280;29098;48.184;16.298;2024-02-14T00:58:55;99997.69;;;2.92;100.00
43503;BME280;29098;48.184;16.298;2024-02-14T01:01:22;99933.84;;;2.63;100.00
43503;BME280;29098;48.184;16.298;2024-02-14T01:03:47;99946.66;;;2.66;100.00
43503;BME280;29098;48.184;16.298;2024-02-14T01:06:13;99961.56;;;2.87;100.00
43503;BME280;29098;48.184;16.298;2024-02-14T01:08:39;99959.78;;;2.76;100.00
43503;BME280;29098;48.184;16.298;2024-02-14T01:11:06;99959.66;;;2.66;100.00
43503;BME280;29098;48.184;16.298;2024-02-14T01:13:32;99926.28;;;2.60;100.00
43503;BME280;29098;48.184;16.298;2024-02-14T01:15:57;99938.84;;;2.66;100.00
43503;BME280;29098;48.184;16.298;2024-02-14T01:18:23;100004.63;;;2.80;100.00
43503;BME280;29098;48.184;16.298;2024-02-14T01:20:49;99953.25;;;2.59;100.00
43503;BME280;29098;48.184;16.298;2024-02-14T01:23:15;99996.09;;;2.66;100.00
43503;BME280;29098;48.184;16.298;2024-02-14T01:25:40;99991.97;;;2.75;100.00
43503;BME280;29098;48.184;16.298;2024-02-14T01:28:07;99909.78;;;2.37;100.00
43503;BME280;29098;48.184;16.298;2024-02-14T01:30:34;99919.09;;;2.28;100.00
43503;BME280;29098;48.184;16.298;2024-02-14T01:33:01;99916.97;;;2.33;100.00
43503;BME280;29098;48.184;16.298;2024-02-14T01:35:26;99900.41;;;2.23;100.00
43503;BME280;29098;48.184;16.298;2024-02-14T01:37:52;99925.72;;;2.21;100.00
43503;BME280;29098;48.184;16.298;2024-02-14T01:40:19;99908.50;;;2.07;100.00
43503;BME280;29098;48.184;16.298;2024-02-14T01:42:45;99995.00;;;2.57;100.00
43503;BME280;29098;48.184;16.298;2024-02-14T01:45:10;99931.88;;;2.31;100.00
43503;BME280;29098;48.184;16.298;2024-02-14T01:47:36;99985.66;;;2.55;100.00
43503;BME280;29098;48.184;16.298;2024-02-14T01:50:01;99985.50;;;2.45;100.00
43503;BME280;29098;48.184;16.298;2024-02-14T01:52:27;99947.84;;;2.26;100.00
43503;BME280;29098;48.184;16.298;2024-02-14T01:54:53;99964.50;;;2.24;100.00
43503;BME280;29098;48.184;16.298;2024-02-14T01:57:20;99979.81;;;2.40;100.00
43503;BME280;29098;48.184;16.298;2024-02-14T01:59:47;99940.09;;;2.13;100.00
43503;BME280;29098;48.184;16.298;2024-02-14T02:02:14;99947.22;;;2.23;100.00
43503;BME280;29098;48.184;16.298;2024-02-14T02:04:41;99928.66;;;2.27;100.00
43503;BME280;29098;48.184;16.298;2024-02-14T02:07:07;99932.38;;;2.36;100.00
43503;BME280;29098;48.184;16.298;2024-02-14T02:09:32;99930.13;;;2.31;100.00
43503;BME280;29098;48.184;16.298;2024-02-14T02:11:59;99957.25;;;2.52;100.00
43503;BME280;29098;48.184;16.298;2024-02-14T02:14:25;99931.16;;;2.29;100.00
43503;BME280;29098;48.184;16.298;2024-02-14T02:16:51;99965.44;;;2.58;100.00
43503;BME280;29098;48.184;16.298;2024-02-14T02:19:17;99920.03;;;2.27;100.00
43503;BME280;29098;48.184;16.298;2024-02-14T02:21:42;99972.44;;;2.69;100.00
43503;BME280;29098;48.184;16.298;2024-02-14T02:24:11;99929.78;;;2.36;100.00
43503;BME280;29098;48.184;16.298;2024-02-14T02:26:37;99904.41;;;2.15;100.00
43503;BME280;29098;48.184;16.298;2024-02-14T02:29:02;99880.38;;;2.12;100.00
43503;BME280;29098;48.184;16.298;2024-02-14T02:31:28;99956.25;;;2.41;100.00
43503;BME280;29098;48.184;16.298;2024-02-14T02:33:53;99891.06;;;1.96;100.00
43503;BME280;29098;48.184;16.298;2024-02-14T02:36:18;99915.25;;;2.09;100.00
43503;BME280;29098;48.184;16.298;2024-02-14T02:38:44;99964.41;;;2.37;100.00
43503;BME280;29098;48.184;16.298;2024-02-14T02:41:09;99974.66;;;2.27;100.00
43503;BME280;29098;48.184;16.298;2024-02-14T02:43:35;99940.44;;;2.09;100.00
43503;BME280;29098;48.184;16.298;2024-02-14T02:46:01;99997.19;;;2.39;100.00
43503;BME280;29098;48.184;16.298;2024-02-14T02:48:27;99976.63;;;2.47;100.00
43503;BME280;29098;48.184;16.298;2024-02-14T02:50:53;99973.25;;;2.23;100.00
43503;BME280;29098;48.184;16.298;2024-02-14T02:53:19;99970.81;;;2.32;100.00
43503;BME280;29098;48.184;16.298;2024-02-14T02:55:45;99938.66;;;2.09;100.00
43503;BME280;29098;48.184;16.298;2024-02-14T02:58:11;99966.75;;;2.04;100.00
43503;BME280;29098;48.184;16.298;2024-02-14T03:00:36;99999.25;;;2.23;100.00
43503;BME280;29098;48.184;16.298;2024-02-14T03:03:02;99938.94;;;1.93;100.00
43503;BME280;29098;48.184;16.298;2024-02-14T03:05:30;99925.88;;;1.82;100.00
43503;BME280;29098;48.184;16.298;2024-02-14T03:07:58;99983.78;;;1.97;100.00
43503;BME280;29098;48.184;16.298;2024-02-14T03:10:24;99945.56;;;1.73;100.00
43503;BME280;29098;48.184;16.298;2024-02-14T03:12:50;99953.88;;;1.78;100.00
43503;BME280;29098;48.184;16.298;2024-02-14T03:15:16;99993.00;;;2.01;100.00
43503;BME280;29098;48.184;16.298;2024-02-14T03:17:42;99980.94;;;2.00;100.00
43503;BME280;29098;48.184;16.298;2024-02-14T03:20:08;99923.94;;;1.72;100.00
43503;BME280;29098;48.184;16.298;2024-02-14T03:22:41;100000.47;;;2.05;100.00
43503;BME280;29098;48.184;16.298;2024-02-14T03:25:19;99996.97;;;1.94;100.00
43503;BME280;29098;48.184;16.298;2024-02-14T03:27:46;99978.38;;;1.87;100.00
43503;BME280;29098;48.184;16.298;2024-02-14T03:30:14;99986.63;;;1.81;100.00
43503;BME280;29098;48.184;16.298;2024-02-14T03:32:41;99979.88;;;1.78;100.00
43503;BME280;29098;48.184;16.298;2024-02-14T03:35:07;100024.44;;;1.98;100.00
43503;BME280;29098;48.184;16.298;2024-02-14T03:37:35;100001.78;;;1.87;100.00
43503;BME280;29098;48.184;16.298;2024-02-14T03:40:04;100004.91;;;1.79;100.00
43503;BME280;29098;48.184;16.298;2024-02-14T03:42:30;100006.25;;;1.85;100.00
43503;BME280;29098;48.184;16.298;2024-02-14T03:44:55;99976.03;;;1.71;100.00
43503;BME280;29098;48.184;16.298;2024-02-14T03:47:30;99978.44;;;1.74;100.00
43503;BME280;29098;48.184;16.298;2024-02-14T03:49:57;100035.47;;;1.88;100.00
43503;BME280;29098;48.184;16.298;2024-02-14T03:52:22;99982.78;;;1.73;100.00
43503;BME280;29098;48.184;16.298;2024-02-14T03:54:48;99978.88;;;1.68;100.00
43503;BME280;29098;48.184;16.298;2024-02-14T03:57:13;99966.72;;;1.55;100.00
43503;BME280;29098;48.184;16.298;2024-02-14T03:59:39;100031.53;;;1.83;100.00
43503;BME280;29098;48.184;16.298;2024-02-14T04:02:05;100017.63;;;1.71;100.00
43503;BME280;29098;48.184;16.298;2024-02-14T04:04:32;99998.00;;;1.67;100.00
43503;BME280;29098;48.184;16.298;2024-02-14T04:06:58;100025.09;;;1.75;100.00
43503;BME280;29098;48.184;16.298;2024-02-14T04:09:26;100029.19;;;1.67;100.00
43503;BME280;29098;48.184;16.298;2024-02-14T04:11:51;100050.47;;;1.72;100.00
43503;BME280;29098;48.184;16.298;2024-02-14T04:14:17;99982.25;;;1.44;100.00
43503;BME280;29098;48.184;16.298;2024-02-14T04:16:43;100018.50;;;1.58;100.00
43503;BME280;29098;48.184;16.298;2024-02-14T04:19:08;99957.22;;;1.43;100.00
43503;BME280;29098;48.184;16.298;2024-02-14T04:21:36;99976.72;;;1.48;100.00
43503;BME280;29098;48.184;16.298;2024-02-14T04:24:03;99980.88;;;1.51;100.00
43503;BME280;29098;48.184;16.298;2024-02-14T04:26:28;100024.72;;;1.69;100.00
43503;BME280;29098;48.184;16.298;2024-02-14T04:28:54;100016.31;;;1.52;100.00
43503;BME280;29098;48.184;16.298;2024-02-14T04:31:19;100007.00;;;1.36;100.00
43503;BME280;29098;48.184;16.298;2024-02-14T04:33:45;99971.97;;;1.29;100.00
43503;BME280;29098;48.184;16.298;2024-02-14T04:36:15;100006.56;;;1.43;100.00
43503;BME280;29098;48.184;16.298;2024-02-14T04:38:41;100024.84;;;1.54;100.00
43503;BME280;29098;48.184;16.298;2024-02-14T04:41:06;100008.91;;;1.59;100.00
43503;BME280;29098;48.184;16.298;2024-02-14T04:43:32;100009.63;;;1.74;100.00
43503;BME280;29098;48.184;16.298;2024-02-14T04:45:57;99990.16;;;1.29;100.00
43503;BME280;29098;48.184;16.298;2024-02-14T04:48:23;100011.53;;;1.59;100.00
43503;BME280;29098;48.184;16.298;2024-02-14T04:50:48;99973.50;;;1.45;100.00
43503;BME280;29098;48.184;16.298;2024-02-14T04:53:14;99982.94;;;1.59;100.00
43503;BME280;29098;48.184;16.298;2024-02-14T04:55:41;99984.91;;;1.55;100.00
43503;BME280;29098;48.184;16.298;2024-02-14T04:58:07;100001.66;;;1.88;100.00
43503;BME280;29098;48.184;16.298;2024-02-14T05:00:32;99980.00;;;1.63;100.00
43503;BME280;29098;48.184;16.298;2024-02-14T05:02:58;99967.25;;;1.60;100.00
43503;BME280;29098;48.184;16.298;2024-02-14T05:05:23;100024.06;;;1.78;100.00
43503;BME280;29098;48.184;16.298;2024-02-14T05:07:49;100004.81;;;1.81;100.00
43503;BME280;29098;48.184;16.298;2024-02-14T05:10:14;100007.75;;;1.76;100.00
43503;BME280;29098;48.184;16.298;2024-02-14T05:12:40;100031.00;;;1.90;100.00
43503;BME280;29098;48.184;16.298;2024-02-14T05:15:06;100007.69;;;1.89;100.00
43503;BME280;29098;48.184;16.298;2024-02-14T05:17:32;100018.50;;;1.96;100.00
43503;BME280;29098;48.184;16.298;2024-02-14T05:19:57;99990.25;;;1.78;100.00
43503;BME280;29098;48.184;16.298;2024-02-14T05:22:22;99970.13;;;1.69;100.00
43503;BME280;29098;48.184;16.298;2024-02-14T05:24:48;100014.66;;;1.88;100.00
43503;BME280;29098;48.184;16.298;2024-02-14T05:27:13;99991.31;;;1.75;100.00
43503;BME280;29098;48.184;16.298;2024-02-14T05:29:39;99982.84;;;1.60;100.00
43503;BME280;29098;48.184;16.298;2024-02-14T05:32:05;99980.25;;;1.60;100.00
43503;BME280;29098;48.184;16.298;2024-02-14T05:34:30;100009.31;;;1.66;100.00
43503;BME280;29098;48.184;16.298;2024-02-14T05:36:56;100013.47;;;1.68;100.00
43503;BME280;29098;48.184;16.298;2024-02-14T05:39:21;100000.00;;;1.63;100.00
43503;BME280;29098;48.184;16.298;2024-02-14T05:41:47;100025.53;;;1.69;100.00
43503;BME280;29098;48.184;16.298;2024-02-14T05:44:14;100029.59;;;1.73;100.00
43503;BME280;29098;48.184;16.298;2024-02-14T05:46:39;100005.09;;;1.52;100.00
43503;BME280;29098;48.184;16.298;2024-02-14T05:49:05;100033.03;;;1.74;100.00
43503;BME280;29098;48.184;16.298;2024-02-14T05:51:31;100015.53;;;1.76;100.00
43503;BME280;29098;48.184;16.298;2024-02-14T05:53:56;99998.09;;;1.65;100.00
43503;BME280;29098;48.184;16.298;2024-02-14T05:56:22;100036.34;;;1.76;100.00
43503;BME280;29098;48.184;16.298;2024-02-14T05:58:47;100008.97;;;1.33;100.00
43503;BME280;29098;48.184;16.298;2024-02-14T06:01:13;100038.13;;;1.62;100.00
43503;BME280;29098;48.184;16.298;2024-02-14T06:03:41;100035.03;;;1.31;100.00
43503;BME280;29098;48.184;16.298;2024-02-14T06:06:08;100017.56;;;1.33;100.00
43503;BME280;29098;48.184;16.298;2024-02-14T06:08:33;100072.22;;;1.58;100.00
43503;BME280;29098;48.184;16.298;2024-02-14T06:10:59;100051.97;;;1.37;100.00
43503;BME280;29098;48.184;16.298;2024-02-14T06:13:24;100079.41;;;1.41;100.00
43503;BME280;29098;48.184;16.298;2024-02-14T06:15:50;100044.91;;;1.26;100.00
43503;BME280;29098;48.184;16.298;2024-02-14T06:18:15;100081.47;;;1.49;100.00
43503;BME280;29098;48.184;16.298;2024-02-14T06:20:41;100068.94;;;1.43;100.00
43503;BME280;29098;48.184;16.298;2024-02-14T06:23:07;100040.34;;;1.17;100.00
43503;BME280;29098;48.184;16.298;2024-02-14T06:25:33;100088.56;;;1.47;100.00
43503;BME280;29098;48.184;16.298;2024-02-14T06:27:58;100068.94;;;1.43;100.00
43503;BME280;29098;48.184;16.298;2024-02-14T06:30:24;100075.47;;;1.35;100.00
43503;BME280;29098;48.184;16.298;2024-02-14T06:32:49;100020.41;;;1.17;100.00
43503;BME280;29098;48.184;16.298;2024-02-14T06:35:15;100055.91;;;1.30;100.00
43503;BME280;29098;48.184;16.298;2024-02-14T06:37:44;100085.56;;;1.40;100.00
43503;BME280;29098;48.184;16.298;2024-02-14T06:40:09;100094.78;;;1.57;100.00
43503;BME280;29098;48.184;16.298;2024-02-14T06:42:35;100088.34;;;1.76;100.00
43503;BME280;29098;48.184;16.298;2024-02-14T06:45:01;100106.09;;;1.95;100.00
43503;BME280;29098;48.184;16.298;2024-02-14T06:47:26;100071.88;;;1.88;100.00
43503;BME280;29098;48.184;16.298;2024-02-14T06:49:55;100117.81;;;2.01;100.00
43503;BME280;29098;48.184;16.298;2024-02-14T06:52:21;100099.47;;;2.15;100.00
43503;BME280;29098;48.184;16.298;2024-02-14T06:54:46;100093.91;;;2.09;100.00
43503;BME280;29098;48.184;16.298;2024-02-14T06:57:13;100049.16;;;1.66;100.00
43503;BME280;29098;48.184;16.298;2024-02-14T06:59:39;100065.59;;;1.67;100.00
43503;BME280;29098;48.184;16.298;2024-02-14T07:02:05;100089.75;;;1.80;100.00
43503;BME280;29098;48.184;16.298;2024-02-14T07:04:31;100101.69;;;1.96;100.00
43503;BME280;29098;48.184;16.298;2024-02-14T07:06:56;100097.34;;;1.96;100.00
43503;BME280;29098;48.184;16.298;2024-02-14T07:09:22;100065.00;;;1.87;100.00
43503;BME280;29098;48.184;16.298;2024-02-14T07:11:47;100067.28;;;1.92;100.00
43503;BME280;29098;48.184;16.298;2024-02-14T07:14:13;100083.31;;;1.99;100.00
43503;BME280;29098;48.184;16.298;2024-02-14T07:16:38;100088.69;;;1.96;100.00
43503;BME280;29098;48.184;16.298;2024-02-14T07:19:04;100066.25;;;1.95;100.00
43503;BME280;29098;48.184;16.298;2024-02-14T07:21:29;100087.78;;;1.97;100.00
43503;BME280;29098;48.184;16.298;2024-02-14T07:23:54;100093.94;;;2.20;100.00
43503;BME280;29098;48.184;16.298;2024-02-14T07:26:20;100074.31;;;2.16;100.00
43503;BME280;29098;48.184;16.298;2024-02-14T07:28:45;100092.09;;;2.46;100.00
43503;BME280;29098;48.184;16.298;2024-02-14T07:31:11;100073.69;;;2.37;100.00
43503;BME280;29098;48.184;16.298;2024-02-14T07:33:36;100062.19;;;2.28;100.00
43503;BME280;29098;48.184;16.298;2024-02-14T07:36:02;100072.59;;;2.52;100.00
43503;BME280;29098;48.184;16.298;2024-02-14T07:38:28;100104.28;;;2.70;100.00
43503;BME280;29098;48.184;16.298;2024-02-14T07:40:53;100072.16;;;2.58;100.00
43503;BME280;29098;48.184;16.298;2024-02-14T07:43:19;100108.44;;;2.73;100.00
43503;BME280;29098;48.184;16.298;2024-02-14T07:45:44;100069.28;;;2.74;100.00
43503;BME280;29098;48.184;16.298;2024-02-14T07:48:09;100059.06;;;2.71;100.00
43503;BME280;29098;48.184;16.298;2024-02-14T07:50:35;100080.75;;;2.83;100.00
43503;BME280;29098;48.184;16.298;2024-02-14T07:53:02;100115.75;;;3.04;100.00
43503;BME280;29098;48.184;16.298;2024-02-14T07:55:27;100093.50;;;3.11;100.00
43503;BME280;29098;48.184;16.298;2024-02-14T07:57:53;100137.34;;;3.17;100.00
43503;BME280;29098;48.184;16.298;2024-02-14T08:00:19;100134.28;;;3.23;100.00
43503;BME280;29098;48.184;16.298;2024-02-14T08:02:51;100105.38;;;3.15;100.00
43503;BME280;29098;48.184;16.298;2024-02-14T08:05:17;100069.94;;;3.12;100.00
43503;BME280;29098;48.184;16.298;2024-02-14T08:07:43;100079.81;;;3.20;100.00
43503;BME280;29098;48.184;16.298;2024-02-14T08:10:09;100119.88;;;3.42;100.00
43503;BME280;29098;48.184;16.298;2024-02-14T08:12:34;100090.13;;;3.33;100.00
43503;BME280;29098;48.184;16.298;2024-02-14T08:15:00;100121.44;;;3.56;100.00
43503;BME280;29098;48.184;16.298;2024-02-14T08:17:29;100085.75;;;3.45;100.00
43503;BME280;29098;48.184;16.298;2024-02-14T08:19:55;100123.44;;;3.64;100.00
43503;BME280;29098;48.184;16.298;2024-02-14T08:22:20;100127.59;;;3.66;100.00
43503;BME280;29098;48.184;16.298;2024-02-14T08:24:46;100105.56;;;3.59;100.00
43503;BME280;29098;48.184;16.298;2024-02-14T08:27:11;100118.13;;;3.77;100.00
43503;BME280;29098;48.184;16.298;2024-02-14T08:29:37;100083.75;;;3.49;100.00
43503;BME280;29098;48.184;16.298;2024-02-14T08:32:03;100096.22;;;3.68;100.00
43503;BME280;29098;48.184;16.298;2024-02-14T08:34:28;100093.13;;;3.74;100.00
43503;BME280;29098;48.184;16.298;2024-02-14T08:36:54;100123.47;;;3.87;100.00
43503;BME280;29098;48.184;16.298;2024-02-14T08:39:20;100079.72;;;3.79;100.00
43503;BME280;29098;48.184;16.298;2024-02-14T08:41:46;100111.09;;;4.11;100.00
43503;BME280;29098;48.184;16.298;2024-02-14T08:44:13;100088.13;;;4.05;100.00
43503;BME280;29098;48.184;16.298;2024-02-14T08:46:38;100101.63;;;4.22;100.00
43503;BME280;29098;48.184;16.298;2024-02-14T08:49:04;100091.19;;;4.22;100.00
43503;BME280;29098;48.184;16.298;2024-02-14T08:51:35;100051.81;;;4.14;100.00
43503;BME280;29098;48.184;16.298;2024-02-14T08:54:00;100106.03;;;4.54;99.46
43503;BME280;29098;48.184;16.298;2024-02-14T08:56:30;100109.06;;;4.71;98.72
43503;BME280;29098;48.184;16.298;2024-02-14T08:58:59;100096.28;;;4.89;97.26
43503;BME280;29098;48.184;16.298;2024-02-14T09:01:25;100079.34;;;4.83;96.94
43503;BME280;29098;48.184;16.298;2024-02-14T09:03:51;100104.59;;;5.15;96.03
43503;BME280;29098;48.184;16.298;2024-02-14T09:06:17;100065.72;;;5.01;95.45
43503;BME280;29098;48.184;16.298;2024-02-14T09:08:44;100107.78;;;5.40;93.81
43503;BME280;29098;48.184;16.298;2024-02-14T09:11:09;100074.44;;;5.32;93.54
43503;BME280;29098;48.184;16.298;2024-02-14T09:13:35;100092.91;;;5.41;92.51
43503;BME280;29098;48.184;16.298;2024-02-14T09:16:00;100072.13;;;5.39;92.14
43503;BME280;29098;48.184;16.298;2024-02-14T09:18:26;100076.91;;;5.34;91.59
43503;BME280;29098;48.184;16.298;2024-02-14T09:20:52;100102.13;;;5.66;91.92
43503;BME280;29098;48.184;16.298;2024-02-14T09:23:18;100085.13;;;5.82;91.66
43503;BME280;29098;48.184;16.298;2024-02-14T09:25:47;100047.09;;;5.78;89.93
43503;BME280;29098;48.184;16.298;2024-02-14T09:28:15;100079.25;;;5.99;89.26
43503;BME280;29098;48.184;16.298;2024-02-14T09:30:40;100041.38;;;6.03;88.16
43503;BME280;29098;48.184;16.298;2024-02-14T09:33:06;100062.41;;;6.33;86.94
43503;BME280;29098;48.184;16.298;2024-02-14T09:35:31;100072.88;;;6.43;86.49
43503;BME280;29098;48.184;16.298;2024-02-14T09:37:57;100084.75;;;6.67;86.52
43503;BME280;29098;48.184;16.298;2024-02-14T09:40:22;100067.91;;;6.69;85.76
43503;BME280;29098;48.184;16.298;2024-02-14T09:42:55;100078.38;;;6.99;85.67
43503;BME280;29098;48.184;16.298;2024-02-14T09:45:24;100061.13;;;7.06;85.25
43503;BME280;29098;48.184;16.298;2024-02-14T09:47:52;100094.31;;;7.35;83.88
43503;BME280;29098;48.184;16.298;2024-02-14T09:50:19;100062.84;;;7.35;82.25
43503;BME280;29098;48.184;16.298;2024-02-14T09:52:47;100052.59;;;7.42;81.17
43503;BME280;29098;48.184;16.298;2024-02-14T09:55:14;100082.56;;;7.77;81.26
43503;BME280;29098;48.184;16.298;2024-02-14T09:57:42;100054.66;;;7.76;80.01
43503;BME280;29098;48.184;16.298;2024-02-14T10:00:12;100067.41;;;7.99;78.73
43503;BME280;29098;48.184;16.298;2024-02-14T10:02:40;100059.91;;;8.04;77.98
43503;BME280;29098;48.184;16.298;2024-02-14T10:05:07;100055.28;;;8.16;77.30
43503;BME280;29098;48.184;16.298;2024-02-14T10:07:43;100084.41;;;8.41;75.49
43503;BME280;29098;48.184;16.298;2024-02-14T10:10:09;100087.94;;;8.60;72.40
43503;BME280;29098;48.184;16.298;2024-02-14T10:12:35;100055.03;;;8.56;70.03
43503;BME280;29098;48.184;16.298;2024-02-14T10:15:00;100094.13;;;8.77;68.46
43503;BME280;29098;48.184;16.298;2024-02-14T10:17:27;100056.06;;;8.63;68.29
43503;BME280;29098;48.184;16.298;2024-02-14T10:19:59;100087.81;;;8.88;67.86
43503;BME280;29098;48.184;16.298;2024-02-14T10:22:32;100020.25;;;8.62;68.99
43503;BME280;29098;48.184;16.298;2024-02-14T10:24:59;100063.31;;;9.06;68.20
43503;BME280;29098;48.184;16.298;2024-02-14T10:27:25;100038.38;;;9.18;68.64
43503;BME280;29098;48.184;16.298;2024-02-14T10:29:51;100089.91;;;9.55;68.44
43503;BME280;29098;48.184;16.298;2024-02-14T10:32:16;100058.34;;;9.64;66.18
43503;BME280;29098;48.184;16.298;2024-02-14T10:34:43;100030.38;;;9.63;66.29
43503;BME280;29098;48.184;16.298;2024-02-14T10:37:13;100074.34;;;10.05;65.25
43503;BME280;29098;48.184;16.298;2024-02-14T10:39:41;100021.31;;;10.08;63.83
43503;BME280;29098;48.184;16.298;2024-02-14T10:42:07;100000.38;;;9.98;63.24
43503;BME280;29098;48.184;16.298;2024-02-14T10:44:34;100026.16;;;10.54;61.74
43503;BME280;29098;48.184;16.298;2024-02-14T10:47:02;100020.06;;;10.46;61.60
43503;BME280;29098;48.184;16.298;2024-02-14T10:49:30;100044.28;;;10.66;61.71
43503;BME280;29098;48.184;16.298;2024-02-14T10:51:58;100054.19;;;10.89;60.54
43503;BME280;29098;48.184;16.298;2024-02-14T10:54:25;99973.41;;;10.79;60.24
43503;BME280;29098;48.184;16.298;2024-02-14T10:56:53;100030.53;;;11.29;57.86
43503;BME280;29098;48.184;16.298;2024-02-14T10:59:24;100006.47;;;11.23;58.01
43503;BME280;29098;48.184;16.298;2024-02-14T11:01:51;99977.16;;;11.02;58.39
43503;BME280;29098;48.184;16.298;2024-02-14T11:04:17;99990.88;;;11.45;57.83
43503;BME280;29098;48.184;16.298;2024-02-14T11:06:47;100036.63;;;11.77;56.66
43503;BME280;29098;48.184;16.298;2024-02-14T11:09:14;99977.44;;;11.55;58.57
43503;BME280;29098;48.184;16.298;2024-02-14T11:11:47;100005.88;;;11.85;55.37
43503;BME280;29098;48.184;16.298;2024-02-14T11:14:18;99966.50;;;11.98;59.06
43503;BME280;29098;48.184;16.298;2024-02-14T11:16:47;99987.84;;;12.20;54.27
43503;BME280;29098;48.184;16.298;2024-02-14T11:19:13;100008.09;;;12.51;55.02
43503;BME280;29098;48.184;16.298;2024-02-14T11:21:41;100023.63;;;12.54;54.46
43503;BME280;29098;48.184;16.298;2024-02-14T11:24:10;99985.59;;;12.09;54.47
43503;BME280;29098;48.184;16.298;2024-02-14T11:26:45;99979.50;;;11.76;54.49
43503;BME280;29098;48.184;16.298;2024-02-14T11:29:13;100014.28;;;11.88;55.54
43503;BME280;29098;48.184;16.298;2024-02-14T11:31:39;99986.00;;;11.65;54.35
43503;BME280;29098;48.184;16.298;2024-02-14T11:34:05;99962.47;;;11.47;56.83
43503;BME280;29098;48.184;16.298;2024-02-14T11:36:32;99969.28;;;11.42;56.23
43503;BME280;29098;48.184;16.298;2024-02-14T11:38:58;99997.47;;;11.41;55.64
43503;BME280;29098;48.184;16.298;2024-02-14T11:41:27;99979.22;;;11.23;55.51
43503;BME280;29098;48.184;16.298;2024-02-14T11:43:53;99980.28;;;11.54;55.21
43503;BME280;29098;48.184;16.298;2024-02-14T11:46:18;99982.66;;;11.72;54.84
43503;BME280;29098;48.184;16.298;2024-02-14T11:48:44;99989.00;;;12.41;53.63
43503;BME280;29098;48.184;16.298;2024-02-14T11:51:11;99978.88;;;12.83;54.23
43503;BME280;29098;48.184;16.298;2024-02-14T11:53:36;99960.91;;;13.08;52.63
43503;BME280;29098;48.184;16.298;2024-02-14T11:56:05;99949.47;;;13.38;48.94
43503;BME280;29098;48.184;16.298;2024-02-14T11:58:30;99978.88;;;13.58;47.43
43503;BME280;29098;48.184;16.298;2024-02-14T12:00:56;99948.94;;;13.58;45.11
43503;BME280;29098;48.184;16.298;2024-02-14T12:03:23;99960.22;;;13.66;44.49
43503;BME280;29098;48.184;16.298;2024-02-14T12:05:52;99993.69;;;13.67;44.69
43503;BME280;29098;48.184;16.298;2024-02-14T12:08:18;99944.25;;;13.60;44.85
43503;BME280;29098;48.184;16.298;2024-02-14T12:10:44;99936.75;;;12.96;43.94
43503;BME280;29098;48.184;16.298;2024-02-14T12:13:17;99930.72;;;12.87;43.69
43503;BME280;29098;48.184;16.298;2024-02-14T12:15:45;99950.88;;;12.88;44.88
43503;BME280;29098;48.184;16.298;2024-02-14T12:18:11;99955.53;;;13.01;44.06
43503;BME280;29098;48.184;16.298;2024-02-14T12:20:38;99927.63;;;12.99;43.18
43503;BME280;29098;48.184;16.298;2024-02-14T12:23:04;99943.56;;;13.21;42.19
43503;BME280;29098;48.184;16.298;2024-02-14T12:25:31;99980.66;;;13.73;42.23
43503;BME280;29098;48.184;16.298;2024-02-14T12:27:57;99924.84;;;13.37;41.41
43503;BME280;29098;48.184;16.298;2024-02-14T12:30:41;99929.34;;;12.62;42.19
43503;BME280;29098;48.184;16.298;2024-02-14T12:33:07;99966.91;;;12.72;42.98
43503;BME280;29098;48.184;16.298;2024-02-14T12:35:34;99944.44;;;12.38;43.05
43503;BME280;29098;48.184;16.298;2024-02-14T12:38:08;99923.00;;;12.47;43.88
43503;BME280;29098;48.184;16.298;2024-02-14T12:40:35;99908.88;;;12.55;43.70